createdAt,value
2022-09-14T00:01:27.825Z,42.17
2022-09-14T00:03:58.001Z,43.60
2022-09-14T00:06:26.242Z,41.88
2022-09-14T00:08:55.966Z,41.56
2022-09-14T00:11:25.749Z,42.53
2022-09-14T00:13:54.161Z,41.41
2022-09-14T00:16:25.913Z,42.49
2022-09-14T00:18:55.204Z,42.01
2022-09-14T00:21:23.826Z,42.12
2022-09-14T00:23:51.559Z,42.11
2022-09-14T00:26:21.494Z,41.63
2022-09-14T00:28:51.450Z,42.13
2022-09-14T00:31:20.503Z,41.83
2022-09-14T00:33:50.951Z,41.66
2022-09-14T00:36:20.771Z,41.68
2022-09-14T00:38:49.699Z,44.19
2022-09-14T00:41:20.492Z,47.77
2022-09-14T00:43:54.008Z,44.20
2022-09-14T00:46:22.015Z,45.59
2022-09-14T00:48:52.988Z,45.85
2022-09-14T00:51:22.732Z,44.01
2022-09-14T00:53:51.227Z,42.97
2022-09-14T00:56:19.668Z,42.61
2022-09-14T00:58:50.798Z,43.49
2022-09-14T01:01:18.940Z,44.64
2022-09-14T01:03:46.600Z,43.43
2022-09-14T01:06:24.265Z,42.27
2022-09-14T01:09:10.278Z,43.87
2022-09-14T01:11:51.508Z,42.64
2022-09-14T01:14:27.993Z,44.38
2022-09-14T01:17:06.748Z,43.72
2022-09-14T01:20:03.741Z,43.43
2022-09-14T01:22:40.884Z,43.41
2022-09-14T01:25:15.854Z,44.41
2022-09-14T01:27:45.915Z,45.01
2022-09-14T01:30:18.049Z,45.29
2022-09-14T01:32:51.685Z,46.25
2022-09-14T01:35:26.476Z,47.22
2022-09-14T01:38:00.702Z,48.41
2022-09-14T01:40:33.934Z,52.52
2022-09-14T01:43:10.824Z,60.35
2022-09-14T01:45:43.054Z,65.37
2022-09-14T01:48:15.194Z,66.40
2022-09-14T01:50:46.068Z,73.95
2022-09-14T01:53:18.708Z,87.86
2022-09-14T01:55:51.527Z,91.92
2022-09-14T01:58:25.750Z,87.09
2022-09-14T02:00:56.650Z,82.82
2022-09-14T02:03:28.270Z,79.67
2022-09-14T02:06:01.233Z,75.77
2022-09-14T02:08:31.825Z,76.71
2022-09-14T02:11:00.195Z,76.08
2022-09-14T02:13:31.547Z,74.49
2022-09-14T02:15:59.410Z,74.24
2022-09-14T02:18:27.182Z,77.25
2022-09-14T02:20:57.813Z,72.90
2022-09-14T02:23:26.105Z,70.92
2022-09-14T02:25:53.868Z,70.92
2022-09-14T02:28:22.601Z,69.30
2022-09-14T02:30:59.415Z,68.50
2022-09-14T02:33:34.955Z,66.56
2022-09-14T02:36:11.368Z,65.61
2022-09-14T02:38:46.819Z,67.58
2022-09-14T02:41:25.850Z,66.83
2022-09-14T02:44:00.753Z,67.75
2022-09-14T02:46:37.247Z,68.45
2022-09-14T02:49:15.013Z,72.37
2022-09-14T02:51:49.389Z,74.86
2022-09-14T02:54:19.801Z,74.65
2022-09-14T02:56:47.812Z,73.05
2022-09-14T02:59:15.470Z,70.26
2022-09-14T03:01:44.515Z,70.52
2022-09-14T03:04:12.242Z,69.71
2022-09-14T03:06:39.938Z,69.30
2022-09-14T03:09:07.611Z,66.36
2022-09-14T03:11:35.303Z,65.97
2022-09-14T03:14:02.907Z,67.31
2022-09-14T03:16:30.732Z,65.65
2022-09-14T03:18:59.752Z,68.75
2022-09-14T03:21:27.396Z,69.64
2022-09-14T03:23:58.269Z,70.81
2022-09-14T03:26:28.977Z,67.88
2022-09-14T03:28:58.083Z,67.49
2022-09-14T03:31:27.141Z,67.45
2022-09-14T03:33:56.494Z,67.44
2022-09-14T03:36:26.990Z,67.02
2022-09-14T03:38:56.714Z,68.13
2022-09-14T03:41:25.669Z,65.88
2022-09-14T03:43:53.430Z,67.26
2022-09-14T03:46:24.250Z,68.24
2022-09-14T03:48:52.111Z,69.22
2022-09-14T03:51:19.845Z,66.40
2022-09-14T03:53:48.895Z,66.65
2022-09-14T03:56:19.297Z,64.80
2022-09-14T03:58:49.201Z,64.42
2022-09-14T04:01:19.010Z,67.00
2022-09-14T04:03:47.214Z,67.70
2022-09-14T04:06:15.992Z,67.15
2022-09-14T04:08:44.756Z,65.71
2022-09-14T04:11:16.817Z,71.81
2022-09-14T04:13:45.294Z,69.04
2022-09-14T04:16:14.330Z,67.62
2022-09-14T04:18:42.272Z,65.52
2022-09-14T04:21:15.736Z,64.98
2022-09-14T04:24:03.408Z,64.93
2022-09-14T04:26:33.005Z,65.67
2022-09-14T04:29:00.652Z,67.97
2022-09-14T04:31:28.559Z,70.86
2022-09-14T04:33:57.370Z,70.96
2022-09-14T04:36:28.484Z,70.35
2022-09-14T04:38:58.072Z,67.62
2022-09-14T04:41:27.028Z,66.24
2022-09-14T04:43:57.218Z,68.87
2022-09-14T04:46:26.597Z,72.15
2022-09-14T04:48:54.627Z,73.47
2022-09-14T04:51:24.533Z,74.52
2022-09-14T04:53:56.279Z,73.65
2022-09-14T04:56:25.236Z,73.96
2022-09-14T04:58:58.395Z,70.79
2022-09-14T05:01:28.017Z,69.22
2022-09-14T05:03:56.295Z,72.66
2022-09-14T05:06:26.619Z,71.92
2022-09-14T05:08:56.498Z,68.08
2022-09-14T05:11:26.299Z,68.12
2022-09-14T05:13:54.176Z,66.63
2022-09-14T05:16:25.695Z,66.98
2022-09-14T05:18:56.069Z,67.04
2022-09-14T05:21:25.074Z,69.57
2022-09-14T05:23:56.826Z,68.68
2022-09-14T05:26:25.299Z,67.79
2022-09-14T05:28:54.931Z,67.33
2022-09-14T05:31:24.798Z,66.99
2022-09-14T05:33:53.349Z,66.15
2022-09-14T05:36:21.373Z,66.12
2022-09-14T05:38:49.141Z,69.07
2022-09-14T05:41:17.372Z,67.65
2022-09-14T05:43:45.670Z,70.14
2022-09-14T05:46:15.209Z,67.87
2022-09-14T05:48:44.694Z,67.25
2022-09-14T05:51:15.718Z,66.97
2022-09-14T05:53:44.284Z,67.29
2022-09-14T05:56:14.040Z,68.59
2022-09-14T05:58:43.319Z,68.03
2022-09-14T06:01:12.720Z,69.46
2022-09-14T06:03:41.332Z,68.16
2022-09-14T06:06:12.277Z,67.41
2022-09-14T06:08:40.443Z,67.00
2022-09-14T06:11:11.327Z,69.12
2022-09-14T06:13:39.279Z,67.15
2022-09-14T06:16:09.493Z,68.06
2022-09-14T06:18:38.493Z,71.86
2022-09-14T06:21:07.095Z,70.71
2022-09-14T06:23:36.521Z,69.59
2022-09-14T06:26:06.611Z,70.19
2022-09-14T06:28:35.416Z,71.25
2022-09-14T06:31:04.497Z,74.34
2022-09-14T06:33:32.607Z,70.98
2022-09-14T06:36:01.960Z,71.09
2022-09-14T06:38:30.353Z,73.01
2022-09-14T06:41:02.698Z,74.29
2022-09-14T06:43:33.880Z,74.49
2022-09-14T06:46:03.077Z,74.99
2022-09-14T06:48:32.923Z,74.11
2022-09-14T06:51:00.749Z,74.37
2022-09-14T06:53:28.451Z,73.25
2022-09-14T06:56:00.893Z,71.71
2022-09-14T06:58:28.645Z,71.50
2022-09-14T07:00:56.379Z,68.73
2022-09-14T07:03:24.107Z,68.51
2022-09-14T07:05:51.846Z,67.77
2022-09-14T07:08:19.538Z,67.42
2022-09-14T07:10:57.205Z,67.73
2022-09-14T07:13:27.434Z,66.54
2022-09-14T07:15:55.496Z,68.20
2022-09-14T07:18:31.884Z,66.23
2022-09-14T07:21:05.534Z,65.61
2022-09-14T07:23:34.516Z,63.99
2022-09-14T07:26:05.064Z,65.71
2022-09-14T07:28:35.204Z,64.78
2022-09-14T07:31:03.464Z,64.92
2022-09-14T07:33:31.314Z,62.88
2022-09-14T07:36:06.693Z,62.13
2022-09-14T07:38:51.116Z,61.09
2022-09-14T07:41:21.170Z,64.87
2022-09-14T07:43:51.967Z,64.84
2022-09-14T07:46:20.063Z,66.96
2022-09-14T07:48:48.854Z,67.91
2022-09-14T07:51:16.872Z,65.47
2022-09-14T07:53:45.519Z,67.63
2022-09-14T07:56:16.463Z,67.05
2022-09-14T07:58:45.418Z,65.66
2022-09-14T08:01:17.835Z,64.69
2022-09-14T08:03:46.997Z,60.60
2022-09-14T08:06:15.947Z,60.80
2022-09-14T08:08:47.934Z,60.17
2022-09-14T08:11:18.060Z,59.69
2022-09-14T08:13:47.592Z,60.75
2022-09-14T08:16:18.339Z,58.18
2022-09-14T08:18:48.116Z,63.14
2022-09-14T08:21:18.493Z,62.27
2022-09-14T08:23:46.555Z,62.52
2022-09-14T08:26:16.161Z,62.48
2022-09-14T08:28:44.839Z,63.31
2022-09-14T08:31:13.995Z,65.91
2022-09-14T08:33:45.280Z,64.67
2022-09-14T08:36:14.898Z,63.75
2022-09-14T08:38:42.766Z,63.36
2022-09-14T08:41:25.649Z,61.78
2022-09-14T08:43:54.190Z,60.37
2022-09-14T08:46:29.847Z,62.39
2022-09-14T08:49:00.576Z,62.63
2022-09-14T08:51:29.083Z,61.77
2022-09-14T08:53:59.390Z,61.74
2022-09-14T08:56:33.761Z,64.09
2022-09-14T08:59:18.710Z,63.64
2022-09-14T09:01:55.217Z,62.13
2022-09-14T09:04:48.934Z,64.11
2022-09-14T09:07:23.115Z,62.18
2022-09-14T09:09:52.685Z,59.41
2022-09-14T09:12:22.911Z,59.56
2022-09-14T09:14:55.305Z,56.19
2022-09-14T09:17:29.869Z,54.63
2022-09-14T09:20:05.572Z,55.27
2022-09-14T09:22:39.217Z,55.66
2022-09-14T09:25:08.702Z,54.71
2022-09-14T09:27:36.346Z,55.40
2022-09-14T09:30:04.214Z,57.67
2022-09-14T09:32:32.488Z,58.37
2022-09-14T09:35:24.732Z,58.54
2022-09-14T09:38:01.079Z,59.55
2022-09-14T09:40:36.003Z,59.69
2022-09-14T09:43:09.705Z,59.13
2022-09-14T09:45:57.250Z,58.25
2022-09-14T09:48:28.293Z,56.40
2022-09-14T09:51:11.828Z,57.58
2022-09-14T09:53:48.336Z,58.76
2022-09-14T09:56:21.806Z,57.33
2022-09-14T09:58:51.727Z,57.18
2022-09-14T10:01:23.147Z,57.67
2022-09-14T10:04:07.116Z,57.64
2022-09-14T10:06:43.962Z,57.51
2022-09-14T10:09:17.935Z,54.15
2022-09-14T10:11:47.758Z,50.98
2022-09-14T10:14:27.582Z,50.96
2022-09-14T10:17:05.360Z,50.78
2022-09-14T10:19:34.457Z,54.17
2022-09-14T10:22:17.543Z,54.34
2022-09-14T10:24:55.354Z,56.45
2022-09-14T10:27:38.053Z,54.67
2022-09-14T10:30:07.848Z,53.99
2022-09-14T10:32:37.863Z,52.45
2022-09-14T10:35:16.073Z,55.16
2022-09-14T10:37:58.032Z,55.81
2022-09-14T10:40:31.713Z,54.82
2022-09-14T10:43:12.383Z,54.65
2022-09-14T10:45:44.865Z,53.99
2022-09-14T10:48:40.252Z,53.54
2022-09-14T10:51:31.458Z,52.56
2022-09-14T10:54:09.440Z,54.39
2022-09-14T10:56:49.471Z,52.00
2022-09-14T10:59:35.210Z,51.54
2022-09-14T11:02:30.484Z,50.45
2022-09-14T11:05:12.698Z,50.24
2022-09-14T11:07:52.502Z,50.63
2022-09-14T11:10:28.197Z,49.81
2022-09-14T11:13:23.923Z,49.74
2022-09-14T11:16:01.524Z,49.55
2022-09-14T11:18:38.216Z,49.07
2022-09-14T11:21:16.221Z,49.15
2022-09-14T11:23:50.676Z,46.83
2022-09-14T11:26:25.685Z,45.66
2022-09-14T11:28:57.862Z,43.70
2022-09-14T11:31:29.450Z,46.16
2022-09-14T11:34:01.645Z,46.06
2022-09-14T11:36:33.975Z,46.49
2022-09-14T11:39:07.662Z,46.45
2022-09-14T11:41:44.328Z,44.46
2022-09-14T11:44:17.468Z,46.03
2022-09-14T11:46:50.702Z,44.72
2022-09-14T11:49:22.272Z,44.79
2022-09-14T11:51:55.040Z,44.79
2022-09-14T11:54:24.496Z,44.31
2022-09-14T11:57:00.369Z,45.41
2022-09-14T11:59:37.484Z,45.54
2022-09-14T12:02:50.983Z,45.44
2022-09-14T12:05:31.796Z,44.84
2022-09-14T12:08:05.547Z,45.25
2022-09-14T12:10:53.184Z,46.59
2022-09-14T12:13:22.337Z,46.87
2022-09-14T12:16:02.519Z,46.18
2022-09-14T12:18:30.323Z,46.74
2022-09-14T12:21:07.973Z,47.23
2022-09-14T12:23:48.171Z,47.03
2022-09-14T12:26:32.860Z,46.77
2022-09-14T12:29:07.397Z,47.20
2022-09-14T12:31:59.891Z,47.22
2022-09-14T12:34:33.133Z,48.54
2022-09-14T12:37:30.621Z,48.33
2022-09-14T12:40:31.920Z,49.67
2022-09-14T12:43:49.844Z,51.67
2022-09-14T12:46:35.983Z,58.99
2022-09-14T12:49:05.494Z,57.78
2022-09-14T12:51:45.311Z,56.98
2022-09-14T12:54:26.801Z,59.43
2022-09-14T12:57:09.931Z,59.42
2022-09-14T12:59:49.924Z,60.13
2022-09-14T13:02:43.318Z,62.06
2022-09-14T13:05:18.949Z,82.16
2022-09-14T13:07:47.461Z,75.28
2022-09-14T13:10:20.062Z,75.25
2022-09-14T13:12:49.645Z,88.01
2022-09-14T13:15:24.984Z,98.96
2022-09-14T13:18:02.562Z,100.00
2022-09-14T13:20:55.826Z,100.00
2022-09-14T13:23:24.578Z,100.00
2022-09-14T13:26:33.297Z,100.00
2022-09-14T13:29:26.979Z,100.00
2022-09-14T13:32:40.597Z,100.00
2022-09-14T13:35:29.612Z,100.00
2022-09-14T13:38:18.276Z,100.00
2022-09-14T13:41:09.363Z,100.00
2022-09-14T13:43:55.300Z,100.00
2022-09-14T13:46:37.308Z,100.00
2022-09-14T13:49:06.995Z,100.00
2022-09-14T13:51:35.954Z,100.00
